Time;durP1;ratioP1;P1;durP2;ratioP2;P2;SDS_P1;SDS_P2;PMS_P1;PMS_P2;Temp;Humidity;BMP_temperature;BMP_pressure;BME280_temperature;BME280_humidity;BME280_pressure;Samples;Min_cycle;Max_cycle;Signal;HPM_P1;HPM_P2
2022/10/15 00:00:53;;;;;;;33.18;18.05;;;;;;;3.27;100.00;100201.04;1547924;92;21554;-76
2022/10/15 00:03:21;;;;;;;38.65;19.52;;;;;;;3.21;100.00;100196.08;1537392;93;21603;-78
2022/10/15 00:05:49;;;;;;;36.42;19.27;;;;;;;3.16;100.00;100195.20;1522601;94;21595;-77
2022/10/15 00:08:16;;;;;;;34.75;18.80;;;;;;;3.07;100.00;100194.80;1544563;92;20971;-77
2022/10/15 00:10:42;;;;;;;38.73;19.65;;;;;;;3.01;100.00;100192.27;1546101;92;21062;-76
2022/10/15 00:13:09;;;;;;;42.67;23.20;;;;;;;2.96;100.00;100197.09;1546158;92;20949;-76
2022/10/15 00:15:37;;;;;;;49.85;20.92;;;;;;;2.90;100.00;100187.23;1590836;89;20910;-77
2022/10/15 00:18:04;;;;;;;42.27;22.65;;;;;;;2.86;100.00;100192.91;1590584;89;20977;-76
2022/10/15 00:20:30;;;;;;;43.02;22.13;;;;;;;2.80;100.00;100196.61;1590887;89;21033;-79
2022/10/15 00:22:57;;;;;;;38.80;20.85;;;;;;;2.76;100.00;100198.18;1590660;90;21532;-77
2022/10/15 00:25:23;;;;;;;41.30;20.35;;;;;;;2.69;100.00;100198.34;1591042;89;20941;-77
2022/10/15 00:27:50;;;;;;;41.15;21.75;;;;;;;2.63;100.00;100196.09;1582039;90;22078;-76
2022/10/15 00:30:17;;;;;;;34.70;18.80;;;;;;;2.61;100.00;100190.63;1536905;92;21463;-76
2022/10/15 00:32:44;;;;;;;32.28;16.77;;;;;;;2.58;100.00;100193.84;1536955;93;21024;-77
2022/10/15 00:35:13;;;;;;;26.40;13.28;;;;;;;2.54;100.00;100188.63;1537073;93;20999;-78
2022/10/15 00:37:40;;;;;;;22.80;12.23;;;;;;;2.51;100.00;100192.65;1522804;94;21191;-78
2022/10/15 00:40:08;;;;;;;23.05;11.30;;;;;;;2.45;100.00;100190.92;1537707;93;21154;-77
2022/10/15 00:42:35;;;;;;;19.40;10.45;;;;;;;2.40;100.00;100190.02;1522701;92;20975;-77
2022/10/15 00:45:01;;;;;;;19.92;10.35;;;;;;;2.37;100.00;100200.82;1536819;93;21019;-77
2022/10/15 00:47:47;;;;;;;21.40;10.60;;;;;;;2.33;100.00;100195.07;1522650;94;21039;-77
2022/10/15 00:50:24;;;;;;;20.62;9.53;;;;;;;2.30;100.00;100188.00;1536736;92;20944;-76
2022/10/15 00:53:02;;;;;;;17.95;8.80;;;;;;;2.28;100.00;100192.84;1522722;94;21211;-76
2022/10/15 00:55:37;;;;;;;18.07;9.05;;;;;;;2.25;100.00;100194.16;1533617;93;20913;-77
2022/10/15 00:58:14;;;;;;;21.75;10.20;;;;;;;2.24;100.00;100193.04;1520769;93;20993;-76
2022/10/15 01:00:41;;;;;;;16.57;9.15;;;;;;;2.22;100.00;100192.46;1538563;92;21034;-76
2022/10/15 01:03:09;;;;;;;15.45;8.13;;;;;;;2.21;100.00;100191.64;1536953;93;20981;-76
2022/10/15 01:05:36;;;;;;;18.57;9.28;;;;;;;2.19;100.00;100194.31;1538851;92;21047;-76
2022/10/15 01:08:04;;;;;;;17.62;9.05;;;;;;;2.20;100.00;100191.89;1537358;93;21033;-77
2022/10/15 01:10:36;;;;;;;23.32;10.00;;;;;;;2.18;100.00;100189.42;1537038;93;21114;-77
2022/10/15 01:13:29;;;;;;;17.23;9.58;;;;;;;2.18;100.00;100196.20;1539023;92;21032;-77
2022/10/15 01:16:05;;;;;;;30.45;9.55;;;;;;;2.18;100.00;100191.31;1537691;93;20993;-78
2022/10/15 01:18:39;;;;;;;19.42;9.60;;;;;;;2.15;100.00;100195.33;1538273;92;21289;-78
2022/10/15 01:21:19;;;;;;;20.40;9.68;;;;;;;2.16;100.00;100188.02;1537566;92;21008;-76
2022/10/15 01:24:18;;;;;;;20.52;9.78;;;;;;;2.15;100.00;100187.73;1540598;92;20921;-76
2022/10/15 01:27:18;;;;;;;19.20;8.98;;;;;;;2.14;100.00;100187.45;1531336;92;21008;-76
2022/10/15 01:30:16;;;;;;;15.38;8.50;;;;;;;2.09;100.00;100177.88;1537930;92;21074;-77
2022/10/15 01:33:16;;;;;;;18.20;8.93;;;;;;;2.05;100.00;100182.14;1537520;92;21939;-77
2022/10/15 01:35:57;;;;;;;15.88;8.63;;;;;;;2.02;100.00;100173.15;1538017;92;20917;-77
2022/10/15 01:38:47;;;;;;;18.37;9.33;;;;;;;1.98;100.00;100174.17;1537770;92;21032;-77
2022/10/15 01:41:19;;;;;;;15.58;7.95;;;;;;;1.95;100.00;100183.60;1536336;92;21012;-77
2022/10/15 01:44:17;;;;;;;22.42;9.90;;;;;;;1.94;100.00;100179.78;1537803;93;21598;-75
2022/10/15 01:47:02;;;;;;;14.15;8.60;;;;;;;1.91;100.00;100182.45;1555689;91;21228;-76
2022/10/15 01:49:33;;;;;;;13.68;7.87;;;;;;;1.89;100.00;100181.87;1536447;92;20936;-76
2022/10/15 01:52:09;;;;;;;16.20;9.10;;;;;;;1.84;100.00;100187.19;1522803;94;21062;-77
2022/10/15 01:54:37;;;;;;;19.85;9.33;;;;;;;1.83;100.00;100188.25;1523224;93;20925;-77
2022/10/15 01:57:04;;;;;;;16.42;8.35;;;;;;;1.81;100.00;100185.50;1536546;92;21038;-76
2022/10/15 01:59:32;;;;;;;16.48;8.95;;;;;;;1.82;100.00;100192.55;1522500;94;21044;-76
2022/10/15 02:01:58;;;;;;;13.75;8.45;;;;;;;1.82;100.00;100190.67;1541905;91;20932;-77
2022/10/15 02:04:28;;;;;;;20.08;8.70;;;;;;;1.84;100.00;100189.89;1545643;92;20988;-77
2022/10/15 02:07:15;;;;;;;15.68;9.23;;;;;;;1.84;100.00;100184.48;1561197;92;20972;-77
2022/10/15 02:10:17;;;;;;;22.27;9.60;;;;;;;1.85;100.00;100187.48;1540130;92;21072;-77
2022/10/15 02:13:10;;;;;;;17.67;8.88;;;;;;;1.84;100.00;100183.66;1531141;93;20981;-76
2022/10/15 02:15:52;;;;;;;16.95;8.83;;;;;;;1.84;100.00;100191.25;1567843;89;20970;-77
2022/10/15 02:18:29;;;;;;;14.00;8.35;;;;;;;1.83;100.00;100186.08;1544292;92;21031;-76
2022/10/15 02:21:11;;;;;;;20.23;9.98;;;;;;;1.83;100.00;100186.90;1522692;94;21004;-77
2022/10/15 02:23:50;;;;;;;18.90;9.63;;;;;;;1.83;100.00;100178.78;1522878;94;20960;-77
2022/10/15 02:26:17;;;;;;;19.67;9.45;;;;;;;1.82;100.00;100185.79;1538420;92;21187;-77
2022/10/15 02:28:49;;;;;;;19.10;9.83;;;;;;;1.80;100.00;100188.73;1556124;90;20956;-77
2022/10/15 02:31:16;;;;;;;19.65;10.48;;;;;;;1.79;100.00;100184.92;1556573;90;20980;-75
2022/10/15 02:33:43;;;;;;;19.37;9.53;;;;;;;1.78;100.00;100194.10;1571688;91;21643;-75
2022/10/15 02:36:12;;;;;;;17.35;9.95;;;;;;;1.77;100.00;100195.98;1560639;91;21055;-75
2022/10/15 02:38:40;;;;;;;24.50;10.72;;;;;;;1.74;100.00;100188.35;1548997;92;21162;-74
2022/10/15 02:41:06;;;;;;;19.27;9.45;;;;;;;1.75;100.00;100194.59;1549165;91;20964;-75
2022/10/15 02:43:34;;;;;;;20.80;8.40;;;;;;;1.74;100.00;100196.47;1549045;92;20992;-75
2022/10/15 02:46:01;;;;;;;21.20;9.08;;;;;;;1.77;100.00;100200.05;1535541;92;21196;-75
2022/10/15 02:48:27;;;;;;;19.75;9.50;;;;;;;1.80;100.00;100202.27;1555880;92;20998;-75
2022/10/15 02:50:54;;;;;;;17.85;9.60;;;;;;;1.81;100.00;100199.86;1576271;90;21797;-75
2022/10/15 02:53:20;;;;;;;16.77;9.08;;;;;;;1.83;100.00;100207.73;1516602;93;21075;-75
2022/10/15 02:55:47;;;;;;;17.87;8.65;;;;;;;1.84;100.00;100199.38;1531155;92;21033;-75
2022/10/15 02:58:14;;;;;;;21.25;9.35;;;;;;;1.86;100.00;100204.02;1545503;92;21066;-75
2022/10/15 03:00:42;;;;;;;22.70;8.85;;;;;;;1.89;100.00;100201.35;1599615;89;21026;-75
2022/10/15 03:03:09;;;;;;;21.10;8.35;;;;;;;1.93;100.00;100205.22;1601283;89;21498;-76
2022/10/15 03:05:36;;;;;;;16.97;8.70;;;;;;;1.96;100.00;100198.78;1572963;91;21059;-75
2022/10/15 03:08:04;;;;;;;16.70;8.85;;;;;;;1.98;100.00;100195.83;1573145;91;21012;-75
2022/10/15 03:10:31;;;;;;;19.32;9.63;;;;;;;2.00;100.00;100199.13;1573132;91;21051;-74
2022/10/15 03:13:03;;;;;;;13.28;7.92;;;;;;;1.99;100.00;100192.88;1573205;91;20896;-75
2022/10/15 03:15:31;;;;;;;16.55;8.93;;;;;;;2.02;100.00;100201.59;1573212;91;22100;-74
2022/10/15 03:17:57;;;;;;;17.52;8.60;;;;;;;2.02;100.00;100202.94;1573366;91;20940;-74
2022/10/15 03:20:24;;;;;;;15.03;8.60;;;;;;;2.02;100.00;100197.52;1573185;91;21027;-75
2022/10/15 03:22:55;;;;;;;22.05;8.93;;;;;;;2.01;100.00;100195.34;1573151;91;20956;-75
2022/10/15 03:25:27;;;;;;;16.75;8.90;;;;;;;1.98;100.00;100195.30;1551602;91;21032;-75
2022/10/15 03:27:59;;;;;;;19.27;7.53;;;;;;;1.96;100.00;100196.08;1570992;90;21395;-76
2022/10/15 03:30:27;;;;;;;16.27;8.45;;;;;;;1.94;100.00;100198.20;1561066;89;21558;-79
2022/10/15 03:32:54;;;;;;;18.73;9.48;;;;;;;1.92;100.00;100198.98;1608164;87;21044;-75
2022/10/15 03:35:21;;;;;;;15.85;7.70;;;;;;;1.91;100.00;100198.69;1601879;89;21561;-75
2022/10/15 03:37:48;;;;;;;22.77;8.70;;;;;;;1.89;100.00;100198.64;1602071;89;21511;-76
2022/10/15 03:40:15;;;;;;;15.03;7.80;;;;;;;1.86;100.00;100200.48;1601999;89;21125;-75
2022/10/15 03:42:42;;;;;;;15.48;8.18;;;;;;;1.82;100.00;100192.02;1601941;88;20980;-75
2022/10/15 03:45:10;;;;;;;15.53;8.00;;;;;;;1.78;100.00;100197.63;1576186;89;20944;-76
2022/10/15 03:47:37;;;;;;;16.77;7.72;;;;;;;1.74;100.00;100195.65;1571364;90;21076;-74
2022/10/15 03:50:04;;;;;;;13.95;8.60;;;;;;;1.70;100.00;100187.75;1571414;91;21052;-80
2022/10/15 03:52:31;;;;;;;16.70;8.53;;;;;;;1.65;100.00;100192.00;1598697;89;21087;-76
2022/10/15 03:54:59;;;;;;;21.93;8.53;;;;;;;1.60;100.00;100198.67;1599260;89;21039;-77
2022/10/15 03:57:26;;;;;;;16.42;8.55;;;;;;;1.57;100.00;100199.69;1598081;89;20992;-77
2022/10/15 03:59:55;;;;;;;15.38;8.13;;;;;;;1.52;100.00;100203.11;1597705;89;20960;-84
2022/10/15 04:02:23;;;;;;;14.55;8.28;;;;;;;1.48;100.00;100206.01;1598059;89;21039;-81
2022/10/15 04:04:52;;;;;;;14.10;7.72;;;;;;;1.44;100.00;100204.02;1597841;89;21515;-83
2022/10/15 04:07:20;;;;;;;14.10;7.92;;;;;;;1.39;100.00;100203.38;1597994;88;21462;-83
2022/10/15 04:09:48;;;;;;;15.85;7.65;;;;;;;1.36;100.00;100208.45;1574415;89;20992;-83
2022/10/15 04:12:30;;;;;;;13.53;7.70;;;;;;;1.32;100.00;100202.70;1566141;91;20996;-85
2022/10/15 04:14:58;;;;;;;11.63;7.17;;;;;;;1.27;100.00;100204.77;1603681;89;20916;-84
2022/10/15 04:17:25;;;;;;;14.83;7.60;;;;;;;1.23;100.00;100206.30;1577003;90;21217;-82
2022/10/15 04:19:53;;;;;;;18.25;7.97;;;;;;;1.20;100.00;100205.95;1579498;91;21087;-84
2022/10/15 04:22:20;;;;;;;15.00;7.75;;;;;;;1.15;100.00;100208.05;1579350;91;21288;-84
2022/10/15 04:24:50;;;;;;;15.70;8.03;;;;;;;1.14;100.00;100209.11;1579525;90;21081;-86
2022/10/15 04:27:19;;;;;;;18.02;8.68;;;;;;;1.13;100.00;100212.05;1585608;89;20951;-85
2022/10/15 04:29:48;;;;;;;19.15;9.13;;;;;;;1.10;100.00;100209.30;1577822;90;21178;-83
2022/10/15 04:32:14;;;;;;;17.90;8.88;;;;;;;1.09;100.00;100214.41;1548632;91;20952;-84
2022/10/15 04:34:41;;;;;;;16.75;8.78;;;;;;;1.08;100.00;100213.30;1552088;92;21060;-85
2022/10/15 04:37:09;;;;;;;20.90;8.83;;;;;;;1.10;100.00;100211.17;1570100;91;21000;-86
2022/10/15 04:39:37;;;;;;;19.32;8.75;;;;;;;1.12;100.00;100209.05;1563760;91;21477;-86
2022/10/15 04:42:04;;;;;;;17.27;8.13;;;;;;;1.13;100.00;100214.23;1553221;90;21268;-83
2022/10/15 04:44:32;;;;;;;21.75;8.60;;;;;;;1.16;100.00;100211.55;1538410;92;21032;-77
2022/10/15 04:47:00;;;;;;;20.90;8.75;;;;;;;1.20;100.00;100205.95;1551981;92;20940;-78
2022/10/15 04:49:34;;;;;;;20.37;9.15;;;;;;;1.27;100.00;100212.88;1555288;90;21039;-80
2022/10/15 04:52:04;;;;;;;18.30;8.43;;;;;;;1.35;100.00;100213.57;1553367;92;21055;-76
2022/10/15 04:54:33;;;;;;;19.82;8.75;;;;;;;1.39;100.00;100211.50;1567856;90;21895;-75
2022/10/15 04:57:04;;;;;;;20.00;8.93;;;;;;;1.45;100.00;100209.19;1568787;91;20940;-77
2022/10/15 04:59:30;;;;;;;14.13;7.65;;;;;;;1.52;100.00;100211.23;1539398;92;21079;-76
2022/10/15 05:01:59;;;;;;;21.95;9.03;;;;;;;1.59;100.00;100213.80;1574288;90;20983;-76
2022/10/15 05:04:26;;;;;;;22.52;8.68;;;;;;;1.69;100.00;100212.65;1587952;90;20935;-75
2022/10/15 05:06:52;;;;;;;16.82;8.25;;;;;;;1.81;100.00;100217.45;1553710;92;21178;-76
2022/10/15 05:09:19;;;;;;;26.33;9.38;;;;;;;1.92;100.00;100215.76;1577076;91;21031;-78
2022/10/15 05:11:49;;;;;;;16.75;7.83;;;;;;;1.99;100.00;100217.25;1552052;92;21037;-78
2022/10/15 05:14:16;;;;;;;18.75;8.13;;;;;;;2.09;100.00;100214.44;1552154;92;21052;-78
2022/10/15 05:16:45;;;;;;;22.40;8.13;;;;;;;2.19;100.00;100215.98;1551797;92;21534;-79
2022/10/15 05:19:15;;;;;;;16.20;7.03;;;;;;;2.29;100.00;100218.33;1548970;92;21063;-76
2022/10/15 05:21:42;;;;;;;15.25;7.05;;;;;;;2.38;100.00;100218.72;1553781;91;20952;-74
2022/10/15 05:24:11;;;;;;;15.05;7.42;;;;;;;2.48;100.00;100224.84;1551566;92;21070;-78
2022/10/15 05:26:51;;;;;;;17.67;7.40;;;;;;;2.59;100.00;100217.17;1576150;90;21575;-78
2022/10/15 05:29:19;;;;;;;22.93;8.88;;;;;;;2.71;100.00;100215.19;1544886;91;20909;-71
2022/10/15 05:31:45;;;;;;;18.77;9.48;;;;;;;2.82;100.00;100222.41;1560670;89;21286;-80
2022/10/15 05:34:19;;;;;;;18.82;9.60;;;;;;;2.89;100.00;100227.09;1570482;91;20983;-72
2022/10/15 05:37:00;;;;;;;22.82;9.83;;;;;;;2.98;100.00;100223.42;1552716;92;20940;-70
2022/10/15 05:39:28;;;;;;;20.70;9.40;;;;;;;3.06;100.00;100230.32;1554770;92;21016;-72
2022/10/15 05:41:55;;;;;;;14.33;8.33;;;;;;;3.14;100.00;100225.29;1557888;89;21681;-78
2022/10/15 05:44:23;;;;;;;46.37;9.28;;;;;;;3.25;100.00;100233.85;1606687;87;21602;-72
2022/10/15 05:46:49;;;;;;;17.50;9.38;;;;;;;3.35;100.00;100230.99;1612033;87;20931;-75
2022/10/15 05:49:18;;;;;;;20.30;11.63;;;;;;;3.47;100.00;100231.66;1607297;89;20888;-74
2022/10/15 05:51:47;;;;;;;19.17;9.53;;;;;;;3.56;100.00;100233.69;1607649;88;21070;-77
2022/10/15 05:54:16;;;;;;;17.37;8.25;;;;;;;3.67;100.00;100233.81;1608562;89;20896;-78
2022/10/15 05:56:43;;;;;;;16.10;7.75;;;;;;;3.79;100.00;100240.75;1607535;89;21163;-79
2022/10/15 05:59:09;;;;;;;13.18;6.72;;;;;;;3.90;100.00;100239.80;1600131;88;21055;-76
2022/10/15 06:01:36;;;;;;;19.60;8.08;;;;;;;4.01;100.00;100238.00;1580442;89;21031;-70
2022/10/15 06:04:04;;;;;;;13.85;7.35;;;;;;;4.12;100.00;100236.19;1554747;92;21002;-71
2022/10/15 06:06:33;;;;;;;17.57;8.48;;;;;;;4.23;100.00;100233.31;1529636;92;21074;-72
2022/10/15 06:09:04;;;;;;;14.87;7.75;;;;;;;4.35;100.00;100234.52;1576338;88;21610;-73
2022/10/15 06:11:28;;;;;;;19.12;8.38;;;;;;;4.47;100.00;100235.70;1582812;90;20953;-68
2022/10/15 06:13:55;;;;;;;14.35;7.90;;;;;;;4.74;100.00;100250.05;1581570;90;20972;-76
2022/10/15 06:16:24;;;;;;;14.90;6.70;;;;;;;4.74;100.00;100250.05;1574467;89;21572;-72
2022/10/15 06:18:53;;;;;;;17.10;8.23;;;;;;;4.89;100.00;100247.98;1574804;91;20984;-72
2022/10/15 06:21:22;;;;;;;15.80;7.75;;;;;;;5.18;100.00;100247.91;1574328;91;21283;-73
2022/10/15 06:23:49;;;;;;;18.57;8.65;;;;;;;5.18;100.00;100247.91;1574417;91;21020;-74
2022/10/15 06:26:17;;;;;;;20.10;7.78;;;;;;;5.31;100.00;100250.14;1574725;91;20977;-72
2022/10/15 06:28:45;;;;;;;18.70;7.90;;;;;;;5.58;100.00;100242.38;1574501;91;21020;-73
2022/10/15 06:31:11;;;;;;;12.53;6.58;;;;;;;5.58;100.00;100242.38;1574179;91;21069;-68
2022/10/15 06:33:38;;;;;;;16.77;9.10;;;;;;;5.73;100.00;100244.35;1588941;90;21511;-73
2022/10/15 06:36:09;;;;;;;12.37;7.50;;;;;;;6.07;100.00;100244.20;1598253;89;21592;-76
2022/10/15 06:38:38;;;;;;;17.55;10.23;;;;;;;6.64;98.58;100251.34;1580931;89;21448;-79
2022/10/15 06:41:06;;;;;;;22.87;13.00;;;;;;;7.29;96.11;100251.80;1598385;88;21178;-76
2022/10/15 06:43:32;;;;;;;18.02;11.95;;;;;;;7.95;92.19;100255.64;1598859;89;21023;-71
2022/10/15 06:46:00;;;;;;;19.77;11.60;;;;;;;8.56;87.72;100254.45;1598798;89;21233;-70
2022/10/15 06:48:27;;;;;;;13.83;9.03;;;;;;;9.02;81.52;100252.67;1567464;89;20946;-74
2022/10/15 06:50:58;;;;;;;13.45;7.08;;;;;;;9.32;78.16;100246.05;1568818;91;20962;-72
2022/10/15 06:53:24;;;;;;;10.23;5.90;;;;;;;9.60;75.51;100247.93;1562393;91;20986;-73
2022/10/15 06:55:51;;;;;;;9.50;5.08;;;;;;;9.83;72.40;100251.74;1562290;91;21054;-74
2022/10/15 06:58:17;;;;;;;12.33;5.92;;;;;;;10.05;70.74;100259.41;1562897;91;21146;-73
2022/10/15 07:00:44;;;;;;;12.35;6.08;;;;;;;10.28;68.78;100259.13;1562287;91;20993;-74
2022/10/15 07:03:11;;;;;;;13.13;9.05;;;;;;;10.48;68.08;100251.39;1562247;91;21601;-78
2022/10/15 07:05:38;;;;;;;16.05;6.10;;;;;;;10.69;66.76;100252.45;1564109;91;21553;-85
2022/10/15 07:08:05;;;;;;;8.23;4.97;;;;;;;10.89;66.24;100246.63;1577832;90;21128;-80
2022/10/15 07:10:33;;;;;;;10.03;4.47;;;;;;;11.15;64.97;100246.41;1572478;91;21048;-89
2022/10/15 07:13:00;;;;;;;9.08;4.80;;;;;;;11.37;64.46;100246.29;1572627;91;21072;-81
2022/10/15 07:15:28;;;;;;;7.25;3.87;;;;;;;11.68;63.52;100248.67;1569715;89;21062;-79
2022/10/15 07:18:00;;;;;;;6.80;3.98;;;;;;;12.03;62.51;100251.28;1571654;90;20980;-82
2022/10/15 07:20:28;;;;;;;10.32;3.98;;;;;;;12.40;61.65;100243.83;1562169;91;21602;-80
2022/10/15 07:22:57;;;;;;;9.90;4.42;;;;;;;12.73;60.15;100249.91;1548646;91;21839;-87
2022/10/15 07:25:25;;;;;;;9.85;4.45;;;;;;;13.01;58.47;100258.29;1548796;92;21046;-80
2022/10/15 07:27:52;;;;;;;9.70;3.85;;;;;;;13.21;56.53;100252.84;1548704;92;21522;-89
2022/10/15 07:30:21;;;;;;;8.48;5.12;;;;;;;13.29;54.60;100253.43;1548783;92;20976;-80
2022/10/15 07:32:51;;;;;;;5.05;3.72;;;;;;;13.35;54.47;100255.48;1529023;92;21581;-84
2022/10/15 07:35:18;;;;;;;5.28;3.25;;;;;;;13.51;55.30;100259.46;1531860;92;21350;-84
2022/10/15 07:37:46;;;;;;;5.70;3.70;;;;;;;13.73;53.64;100259.95;1588928;89;20937;-70
2022/10/15 07:40:14;;;;;;;8.20;3.27;;;;;;;13.86;55.21;100265.33;1585907;90;20993;-82
2022/10/15 07:42:42;;;;;;;6.20;2.87;;;;;;;14.17;51.05;100263.87;1585491;89;21064;-82
2022/10/15 07:45:10;;;;;;;8.40;3.52;;;;;;;14.12;51.07;100263.20;1585493;90;21468;-75
2022/10/15 07:47:40;;;;;;;8.08;3.02;;;;;;;14.08;50.53;100264.98;1585613;90;21568;-77
2022/10/15 07:50:08;;;;;;;5.28;3.00;;;;;;;14.07;49.37;100267.50;1585359;90;20997;-75
2022/10/15 07:52:35;;;;;;;6.22;3.25;;;;;;;14.04;49.74;100266.20;1585619;90;21635;-79
2022/10/15 07:55:07;;;;;;;12.78;3.12;;;;;;;13.98;49.68;100275.76;1585554;90;21013;-76
2022/10/15 07:57:31;;;;;;;5.22;2.95;;;;;;;14.04;51.00;100273.66;1573178;90;21067;-77
2022/10/15 07:59:58;;;;;;;6.42;2.95;;;;;;;14.38;50.87;100269.59;1572922;90;21519;-77
2022/10/15 08:02:24;;;;;;;9.85;5.50;;;;;;;14.72;49.54;100266.59;1585905;89;21021;-77
2022/10/15 08:04:55;;;;;;;268.42;114.67;;;;;;;15.07;49.93;100268.16;1585512;90;20941;-77
2022/10/15 08:07:25;;;;;;;37.63;19.07;;;;;;;15.40;48.85;100260.11;1568255;91;20985;-72
2022/10/15 08:09:59;;;;;;;11.10;4.37;;;;;;;15.82;46.72;100263.05;1559761;91;21040;-79
2022/10/15 08:12:27;;;;;;;8.18;2.95;;;;;;;15.98;42.45;100271.59;1586092;88;20944;-74
2022/10/15 08:14:59;;;;;;;5.87;2.62;;;;;;;15.90;41.80;100265.53;1585447;90;20939;-71
2022/10/15 08:17:32;;;;;;;5.60;2.60;;;;;;;15.72;42.41;100266.19;1570149;90;21605;-77
2022/10/15 08:20:00;;;;;;;5.45;2.40;;;;;;;15.70;41.89;100260.98;1586350;89;20983;-76
2022/10/15 08:22:32;;;;;;;5.60;3.20;;;;;;;15.70;41.91;100256.83;1593689;89;20932;-77
2022/10/15 08:25:04;;;;;;;6.45;2.90;;;;;;;15.78;41.83;100266.23;1578533;89;21450;-78
2022/10/15 08:27:34;;;;;;;10.58;2.98;;;;;;;15.75;41.33;100263.56;1573470;90;21035;-74
2022/10/15 08:30:07;;;;;;;7.12;2.17;;;;;;;15.72;41.41;100272.53;1590697;89;21043;-74
2022/10/15 08:32:40;;;;;;;5.70;1.87;;;;;;;15.68;41.12;100267.42;1552139;90;20992;-88
2022/10/15 08:35:14;;;;;;;6.67;3.12;;;;;;;15.64;40.68;100269.23;1530964;92;21488;-89
2022/10/15 08:37:46;;;;;;;8.60;5.60;;;;;;;15.68;40.50;100261.88;1565044;91;21178;-84
2022/10/15 08:40:16;;;;;;;6.92;2.90;;;;;;;15.76;40.41;100264.37;1554529;92;20952;-83
2022/10/15 08:42:47;;;;;;;4.28;2.27;;;;;;;15.90;40.23;100266.91;1569372;90;20956;-81
2022/10/15 08:45:25;;;;;;;6.95;2.37;;;;;;;16.07;39.62;100258.52;1565945;91;21019;-80
2022/10/15 08:48:13;;;;;;;10.35;2.37;;;;;;;16.08;38.99;100258.75;1521342;93;21578;-73
2022/10/15 08:50:46;;;;;;;6.58;1.92;;;;;;;15.97;38.57;100264.44;1522307;94;21199;-78
2022/10/15 08:53:23;;;;;;;4.58;2.05;;;;;;;15.93;39.00;100255.98;1537356;92;21055;-75
2022/10/15 08:56:00;;;;;;;4.90;2.27;;;;;;;16.22;39.13;100263.44;1522744;94;20960;-72
2022/10/15 08:59:06;;;;;;;3.40;1.90;;;;;;;16.36;38.81;100262.61;1537818;92;20989;-84
2022/10/15 09:01:51;;;;;;;5.97;2.20;;;;;;;16.55;39.27;100266.30;1522657;94;20989;-78
2022/10/15 09:04:57;;;;;;;6.50;2.27;;;;;;;16.80;37.83;100261.13;1545034;91;20976;-77
2022/10/15 09:07:42;;;;;;;8.00;2.35;;;;;;;16.90;38.68;100261.86;1537292;92;21031;-74
2022/10/15 09:10:19;;;;;;;5.58;1.85;;;;;;;17.03;38.38;100265.72;1536748;90;20892;-73
2022/10/15 09:13:10;;;;;;;4.75;2.45;;;;;;;17.16;37.16;100267.97;1549231;91;20996;-75
2022/10/15 09:15:44;;;;;;;6.35;2.33;;;;;;;17.19;36.80;100265.08;1568372;90;21432;-76
2022/10/15 09:18:16;;;;;;;5.62;2.30;;;;;;;17.27;37.66;100259.44;1574043;91;21187;-74
2022/10/15 09:20:44;;;;;;;6.12;2.17;;;;;;;17.44;36.77;100258.41;1535444;91;21035;-75
2022/10/15 09:23:19;;;;;;;4.70;2.75;;;;;;;17.50;37.66;100263.97;1579351;91;21335;-76
2022/10/15 09:25:58;;;;;;;5.33;3.20;;;;;;;17.82;36.12;100267.86;1567300;91;21482;-77
2022/10/15 09:28:31;;;;;;;7.70;3.20;;;;;;;17.98;36.14;100267.95;1566813;90;21142;-72
2022/10/15 09:31:00;;;;;;;5.78;2.35;;;;;;;18.17;35.39;100270.95;1552121;92;21272;-75
2022/10/15 09:33:42;;;;;;;6.20;2.50;;;;;;;18.25;36.32;100265.84;1565021;90;21000;-74
2022/10/15 09:36:46;;;;;;;3.95;2.65;;;;;;;18.42;36.00;100261.99;1536564;92;21459;-75
2022/10/15 09:39:37;;;;;;;6.28;2.08;;;;;;;18.49;35.08;100258.81;1547612;92;21198;-76
2022/10/15 09:42:33;;;;;;;6.97;2.37;;;;;;;18.61;34.66;100255.80;1547410;91;21118;-76
2022/10/15 09:45:11;;;;;;;3.70;2.33;;;;;;;18.47;34.19;100262.56;1546702;92;21611;-76
2022/10/15 09:47:40;;;;;;;5.85;2.85;;;;;;;18.32;34.75;100256.34;1554247;90;20935;-76
2022/10/15 09:50:13;;;;;;;4.72;2.15;;;;;;;18.33;34.45;100258.53;1602232;89;20973;-75
2022/10/15 09:53:26;;;;;;;8.03;2.27;;;;;;;18.32;34.82;100253.55;1602192;89;21063;-76
2022/10/15 09:56:13;;;;;;;5.97;2.50;;;;;;;18.48;35.85;100248.08;1581211;90;20976;-76
2022/10/15 09:58:48;;;;;;;5.20;2.13;;;;;;;18.09;34.93;100257.98;1557855;91;21312;-78
2022/10/15 10:01:29;;;;;;;3.83;2.62;;;;;;;17.80;35.69;100250.16;1540723;92;20972;-71
2022/10/15 10:04:18;;;;;;;9.38;2.52;;;;;;;17.77;37.33;100256.40;1598619;88;20974;-72
2022/10/15 10:06:51;;;;;;;7.15;2.52;;;;;;;18.03;36.73;100261.58;1582838;89;21585;-81
2022/10/15 10:09:30;;;;;;;4.35;2.30;;;;;;;18.33;36.23;100256.56;1571206;90;20935;-76
2022/10/15 10:12:02;;;;;;;12.37;2.90;;;;;;;18.48;35.33;100259.98;1562156;91;21194;-74
2022/10/15 10:14:34;;;;;;;6.08;2.77;;;;;;;18.38;35.64;100257.72;1558018;91;20897;-71
2022/10/15 10:17:16;;;;;;;5.28;2.47;;;;;;;18.31;36.11;100251.94;1571120;89;21119;-72
2022/10/15 10:19:47;;;;;;;6.03;2.87;;;;;;;18.24;36.29;100252.30;1577050;88;21020;-71
2022/10/15 10:22:18;;;;;;;4.20;2.58;;;;;;;18.31;35.27;100251.94;1545753;91;21039;-69
2022/10/15 10:24:46;;;;;;;4.92;2.50;;;;;;;18.11;34.94;100257.06;1533776;91;21287;-75
2022/10/15 10:27:23;;;;;;;4.22;2.65;;;;;;;18.00;36.07;100253.13;1574840;89;20991;-74
2022/10/15 10:30:00;;;;;;;6.60;2.75;;;;;;;18.06;35.23;100258.68;1560296;91;20932;-73
2022/10/15 10:32:32;;;;;;;8.10;2.70;;;;;;;18.00;35.22;100249.77;1551506;90;20976;-74
2022/10/15 10:34:59;;;;;;;;;;;;;;;17.99;36.14;100248.73;1539623;93;21091;-76
2022/10/15 10:37:26;;;;;;;5.60;2.35;;;;;;;18.24;37.10;100247.55;1548216;92;21151;-74
2022/10/15 10:39:55;;;;;;;8.23;2.47;;;;;;;18.48;35.23;100239.73;1570439;91;21012;-74
2022/10/15 10:42:26;;;;;;;4.58;2.70;;;;;;;18.49;35.41;100239.36;1590411;88;21599;-75
2022/10/15 10:44:53;;;;;;;4.60;2.30;;;;;;;18.69;35.35;100234.00;1575441;91;21046;-72
2022/10/15 10:47:25;;;;;;;6.30;2.20;;;;;;;18.72;34.39;100238.85;1604071;89;20980;-77
2022/10/15 10:49:56;;;;;;;5.00;2.40;;;;;;;18.75;34.35;100237.56;1595968;89;21116;-74
2022/10/15 10:52:29;;;;;;;4.58;2.08;;;;;;;18.75;34.00;100237.56;1570515;91;21033;-74
2022/10/15 10:55:17;;;;;;;5.85;2.58;;;;;;;18.82;34.18;100234.18;1584239;89;21073;-76
2022/10/15 10:57:55;;;;;;;6.90;2.60;;;;;;;18.83;34.13;100234.41;1584401;89;20971;-72
2022/10/15 11:00:41;;;;;;;7.45;2.67;;;;;;;18.76;34.26;100231.42;1612441;89;21094;-78
2022/10/15 11:03:21;;;;;;;4.30;2.33;;;;;;;18.67;35.32;100216.86;1605932;88;21160;-74
2022/10/15 11:05:51;;;;;;;4.08;1.90;;;;;;;18.80;34.59;100222.59;1600489;89;20936;-78
2022/10/15 11:08:39;;;;;;;4.70;2.20;;;;;;;18.84;33.60;100226.29;1603892;88;21011;-77
2022/10/15 11:11:28;;;;;;;6.45;2.45;;;;;;;18.69;34.31;100228.44;1569363;91;21511;-77
2022/10/15 11:14:41;;;;;;;4.05;2.20;;;;;;;18.53;34.01;100220.00;1584190;89;21099;-78
2022/10/15 11:17:17;;;;;;;4.28;1.80;;;;;;;18.58;33.97;100224.50;1551160;92;21615;-77
2022/10/15 11:20:05;;;;;;;4.10;1.80;;;;;;;18.55;33.85;100229.38;1566662;90;20958;-75
2022/10/15 11:22:48;;;;;;;4.20;1.98;;;;;;;18.60;33.43;100224.96;1550043;92;21014;-78
2022/10/15 11:25:44;;;;;;;8.45;1.90;;;;;;;18.79;33.64;100215.42;1549842;92;21046;-77
2022/10/15 11:28:41;;;;;;;2.72;1.80;;;;;;;18.86;33.69;100215.62;1529199;92;21566;-77
2022/10/15 11:31:47;;;;;;;4.72;1.70;;;;;;;19.08;33.85;100219.19;1549784;92;21288;-78
2022/10/15 11:34:38;;;;;;;5.00;2.37;;;;;;;19.26;32.82;100217.46;1526884;92;21014;-79
2022/10/15 11:37:16;;;;;;;3.87;1.92;;;;;;;19.40;32.54;100212.27;1575091;90;21002;-74
2022/10/15 11:40:00;;;;;;;4.03;1.67;;;;;;;19.59;32.75;100210.19;1601869;89;21056;-72
2022/10/15 11:42:55;;;;;;;3.33;1.80;;;;;;;20.01;32.83;100201.44;1572163;89;20936;-73
2022/10/15 11:45:52;;;;;;;6.83;1.57;;;;;;;20.13;31.52;100206.08;1571718;91;21104;-76